sensor_id;sensor_type;location;lat;lon;timestamp;pressure;altitude;pressure_sealevel;temperature;humidity
54329;BME280;40710;51.120;13.136;2023-04-15T00:00:20;98331.16;;;9.57;74.45
54329;BME280;40710;51.120;13.136;2023-04-15T00:02:44;98326.81;;;9.83;73.38
54329;BME280;40710;51.120;13.136;2023-04-15T00:05:09;98325.53;;;9.89;73.54
54329;BME280;40710;51.120;13.136;2023-04-15T00:07:34;98320.59;;;9.44;74.53
54329;BME280;40710;51.120;13.136;2023-04-15T00:09:59;98323.31;;;9.43;75.06
54329;BME280;40710;51.120;13.136;2023-04-15T00:12:24;98318.78;;;9.59;74.85
54329;BME280;40710;51.120;13.136;2023-04-15T00:14:49;98314.19;;;9.89;73.92
54329;BME280;40710;51.120;13.136;2023-04-15T00:17:14;98320.31;;;9.22;75.31
54329;BME280;40710;51.120;13.136;2023-04-15T00:19:38;98302.47;;;10.07;72.91
54329;BME280;40710;51.120;13.136;2023-04-15T00:22:04;98310.28;;;9.69;73.87
54329;BME280;40710;51.120;13.136;2023-04-15T00:24:28;98306.72;;;9.30;74.60
54329;BME280;40710;51.120;13.136;2023-04-15T00:26:54;98313.97;;;9.66;74.30
54329;BME280;40710;51.120;13.136;2023-04-15T00:29:19;98305.50;;;9.48;74.50
54329;BME280;40710;51.120;13.136;2023-04-15T00:31:43;98303.97;;;9.58;74.04
54329;BME280;40710;51.120;13.136;2023-04-15T00:34:08;98309.34;;;9.70;74.10
54329;BME280;40710;51.120;13.136;2023-04-15T00:36:32;98303.22;;;9.56;74.41
54329;BME280;40710;51.120;13.136;2023-04-15T00:38:58;98295.91;;;9.61;74.25
54329;BME280;40710;51.120;13.136;2023-04-15T00:41:23;98294.19;;;9.60;74.78
54329;BME280;40710;51.120;13.136;2023-04-15T00:43:48;98298.59;;;9.20;75.17
54329;BME280;40710;51.120;13.136;2023-04-15T00:46:14;98287.22;;;9.87;73.96
54329;BME280;40710;51.120;13.136;2023-04-15T00:48:39;98291.72;;;9.84;73.61
54329;BME280;40710;51.120;13.136;2023-04-15T00:51:04;98295.00;;;9.48;74.70
54329;BME280;40710;51.120;13.136;2023-04-15T00:53:28;98292.28;;;9.37;74.71
54329;BME280;40710;51.120;13.136;2023-04-15T00:55:53;98283.31;;;9.67;75.01
54329;BME280;40710;51.120;13.136;2023-04-15T00:58:17;98282.16;;;9.71;74.13
54329;BME280;40710;51.120;13.136;2023-04-15T01:00:42;98280.88;;;9.23;75.20
54329;BME280;40710;51.120;13.136;2023-04-15T01:03:07;98287.88;;;9.10;76.16
54329;BME280;40710;51.120;13.136;2023-04-15T01:05:32;98282.88;;;9.20;77.25
54329;BME280;40710;51.120;13.136;2023-04-15T01:07:57;98268.22;;;9.70;74.47
54329;BME280;40710;51.120;13.136;2023-04-15T01:10:22;98264.22;;;9.64;74.25
54329;BME280;40710;51.120;13.136;2023-04-15T01:12:46;98262.66;;;9.88;74.18
54329;BME280;40710;51.120;13.136;2023-04-15T01:15:11;98269.91;;;9.04;76.02
54329;BME280;40710;51.120;13.136;2023-04-15T01:17:35;98256.25;;;9.79;74.52
54329;BME280;40710;51.120;13.136;2023-04-15T01:20:00;98249.00;;;9.95;73.30
54329;BME280;40710;51.120;13.136;2023-04-15T01:22:26;98251.34;;;9.87;73.43
54329;BME280;40710;51.120;13.136;2023-04-15T01:25:01;98253.44;;;10.33;72.07
54329;BME280;40710;51.120;13.136;2023-04-15T01:27:29;98256.06;;;9.95;72.85
54329;BME280;40710;51.120;13.136;2023-04-15T01:29:54;98262.53;;;9.63;73.01
54329;BME280;40710;51.120;13.136;2023-04-15T01:32:19;98250.91;;;10.06;73.34
54329;BME280;40710;51.120;13.136;2023-04-15T01:34:43;98240.59;;;10.16;72.77
54329;BME280;40710;51.120;13.136;2023-04-15T01:37:08;98243.53;;;9.73;73.95
54329;BME280;40710;51.120;13.136;2023-04-15T01:39:32;98241.03;;;10.10;72.71
54329;BME280;40710;51.120;13.136;2023-04-15T01:41:58;98246.78;;;9.51;74.04
54329;BME280;40710;51.120;13.136;2023-04-15T01:44:22;98251.00;;;9.92;73.87
54329;BME280;40710;51.120;13.136;2023-04-15T01:46:47;98240.72;;;10.01;72.42
54329;BME280;40710;51.120;13.136;2023-04-15T01:49:11;98241.56;;;9.89;72.47
54329;BME280;40710;51.120;13.136;2023-04-15T01:51:36;98238.84;;;10.03;71.94
54329;BME280;40710;51.120;13.136;2023-04-15T01:54:01;98240.22;;;9.83;73.70
54329;BME280;40710;51.120;13.136;2023-04-15T01:56:25;98233.06;;;9.98;73.27
54329;BME280;40710;51.120;13.136;2023-04-15T01:58:51;98234.00;;;9.97;72.94
54329;BME280;40710;51.120;13.136;2023-04-15T02:01:16;98231.28;;;10.12;71.96
54329;BME280;40710;51.120;13.136;2023-04-15T02:03:42;98225.38;;;10.34;72.17
54329;BME280;40710;51.120;13.136;2023-04-15T02:06:07;98232.22;;;9.98;73.08
54329;BME280;40710;51.120;13.136;2023-04-15T02:08:31;98235.91;;;9.70;73.47
54329;BME280;40710;51.120;13.136;2023-04-15T02:10:57;98232.69;;;9.39;74.43
54329;BME280;40710;51.120;13.136;2023-04-15T02:13:22;98209.13;;;9.77;73.60
54329;BME280;40710;51.120;13.136;2023-04-15T02:15:48;98220.75;;;9.35;74.85
54329;BME280;40710;51.120;13.136;2023-04-15T02:18:13;98218.59;;;9.14;75.84
54329;BME280;40710;51.120;13.136;2023-04-15T02:20:38;98207.59;;;9.22;75.75
54329;BME280;40710;51.120;13.136;2023-04-15T02:23:02;98206.94;;;9.84;74.27
54329;BME280;40710;51.120;13.136;2023-04-15T02:25:30;98205.16;;;9.72;72.78
54329;BME280;40710;51.120;13.136;2023-04-15T02:27:56;98199.94;;;10.21;72.66
54329;BME280;40710;51.120;13.136;2023-04-15T02:30:21;98205.66;;;10.02;72.14
54329;BME280;40710;51.120;13.136;2023-04-15T02:32:47;98203.97;;;9.89;72.42
54329;BME280;40710;51.120;13.136;2023-04-15T02:35:11;98209.75;;;10.07;72.25
54329;BME280;40710;51.120;13.136;2023-04-15T02:37:36;98205.97;;;10.36;72.01
54329;BME280;40710;51.120;13.136;2023-04-15T02:40:08;98211.22;;;9.85;72.33
54329;BME280;40710;51.120;13.136;2023-04-15T02:42:35;98231.22;;;9.35;74.44
54329;BME280;40710;51.120;13.136;2023-04-15T02:44:59;98228.38;;;9.38;74.81
54329;BME280;40710;51.120;13.136;2023-04-15T02:47:24;98228.97;;;9.69;73.42
54329;BME280;40710;51.120;13.136;2023-04-15T02:49:49;98221.28;;;9.65;73.80
54329;BME280;40710;51.120;13.136;2023-04-15T02:52:13;98211.34;;;9.96;72.61
54329;BME280;40710;51.120;13.136;2023-04-15T02:54:38;98225.53;;;9.28;75.30
54329;BME280;40710;51.120;13.136;2023-04-15T02:57:02;98218.38;;;9.57;74.81
54329;BME280;40710;51.120;13.136;2023-04-15T02:59:29;98218.03;;;9.62;74.22
54329;BME280;40710;51.120;13.136;2023-04-15T03:01:54;98214.19;;;9.80;73.43
54329;BME280;40710;51.120;13.136;2023-04-15T03:04:23;98219.91;;;9.47;74.84
54329;BME280;40710;51.120;13.136;2023-04-15T03:06:48;98214.47;;;10.01;73.12
54329;BME280;40710;51.120;13.136;2023-04-15T03:09:12;98208.59;;;10.36;71.76
54329;BME280;40710;51.120;13.136;2023-04-15T03:11:37;98213.22;;;9.69;73.85
54329;BME280;40710;51.120;13.136;2023-04-15T03:14:04;98211.31;;;9.45;73.89
54329;BME280;40710;51.120;13.136;2023-04-15T03:16:28;98216.38;;;9.74;73.99
54329;BME280;40710;51.120;13.136;2023-04-15T03:18:53;98208.81;;;9.82;73.17
54329;BME280;40710;51.120;13.136;2023-04-15T03:21:17;98199.78;;;10.12;73.11
54329;BME280;40710;51.120;13.136;2023-04-15T03:23:43;98210.66;;;10.44;71.49
54329;BME280;40710;51.120;13.136;2023-04-15T03:26:07;98208.91;;;10.06;72.53
54329;BME280;40710;51.120;13.136;2023-04-15T03:28:32;98196.41;;;10.10;72.16
54329;BME280;40710;51.120;13.136;2023-04-15T03:30:58;98206.72;;;10.00;73.16
54329;BME280;40710;51.120;13.136;2023-04-15T03:33:22;98187.38;;;10.88;70.79
54329;BME280;40710;51.120;13.136;2023-04-15T03:35:47;98192.56;;;9.77;73.11
54329;BME280;40710;51.120;13.136;2023-04-15T03:38:11;98195.59;;;9.83;73.09
54329;BME280;40710;51.120;13.136;2023-04-15T03:40:39;98194.13;;;9.92;73.30
54329;BME280;40710;51.120;13.136;2023-04-15T03:43:04;98180.22;;;10.16;72.56
54329;BME280;40710;51.120;13.136;2023-04-15T03:45:29;98191.34;;;10.32;72.15
54329;BME280;40710;51.120;13.136;2023-04-15T03:47:53;98202.72;;;9.94;73.71
54329;BME280;40710;51.120;13.136;2023-04-15T03:50:18;98196.19;;;10.26;71.87
54329;BME280;40710;51.120;13.136;2023-04-15T03:52:43;98198.91;;;10.11;72.45
54329;BME280;40710;51.120;13.136;2023-04-15T03:55:08;98188.16;;;9.64;73.47
54329;BME280;40710;51.120;13.136;2023-04-15T03:57:33;98198.50;;;10.43;72.52
54329;BME280;40710;51.120;13.136;2023-04-15T04:00:01;98176.03;;;10.13;70.83
54329;BME280;40710;51.120;13.136;2023-04-15T04:02:25;98193.78;;;9.33;74.36
54329;BME280;40710;51.120;13.136;2023-04-15T04:04:51;98206.09;;;9.58;75.03
54329;BME280;40710;51.120;13.136;2023-04-15T04:07:17;98173.19;;;10.66;71.21
54329;BME280;40710;51.120;13.136;2023-04-15T04:09:41;98175.97;;;10.52;71.05
54329;BME280;40710;51.120;13.136;2023-04-15T04:12:06;98180.22;;;10.42;71.25
54329;BME280;40710;51.120;13.136;2023-04-15T04:14:30;98171.16;;;10.46;71.17
54329;BME280;40710;51.120;13.136;2023-04-15T04:16:55;98182.59;;;10.45;71.91
54329;BME280;40710;51.120;13.136;2023-04-15T04:19:20;98182.41;;;10.72;70.14
54329;BME280;40710;51.120;13.136;2023-04-15T04:21:45;98188.34;;;10.50;71.18
54329;BME280;40710;51.120;13.136;2023-04-15T04:24:09;98192.78;;;10.49;71.24
54329;BME280;40710;51.120;13.136;2023-04-15T04:26:34;98197.38;;;9.70;72.74
54329;BME280;40710;51.120;13.136;2023-04-15T04:28:58;98195.03;;;10.04;72.96
54329;BME280;40710;51.120;13.136;2023-04-15T04:31:23;98195.91;;;10.05;72.57
54329;BME280;40710;51.120;13.136;2023-04-15T04:33:47;98187.59;;;10.11;73.06
54329;BME280;40710;51.120;13.136;2023-04-15T04:36:12;98158.00;;;13.30;69.61
54329;BME280;40710;51.120;13.136;2023-04-15T04:38:36;98185.09;;;10.59;71.40
54329;BME280;40710;51.120;13.136;2023-04-15T04:41:01;98196.38;;;10.35;72.30
54329;BME280;40710;51.120;13.136;2023-04-15T04:43:25;98195.59;;;10.59;71.57
54329;BME280;40710;51.120;13.136;2023-04-15T04:45:50;98194.47;;;10.74;70.86
54329;BME280;40710;51.120;13.136;2023-04-15T04:48:15;98190.16;;;10.49;71.17
54329;BME280;40710;51.120;13.136;2023-04-15T04:50:40;98184.19;;;10.47;71.67
54329;BME280;40710;51.120;13.136;2023-04-15T04:53:05;98182.09;;;10.27;72.10
54329;BME280;40710;51.120;13.136;2023-04-15T04:55:29;98167.63;;;10.58;71.86
54329;BME280;40710;51.120;13.136;2023-04-15T04:57:55;98172.16;;;10.19;73.04
54329;BME280;40710;51.120;13.136;2023-04-15T05:00:20;98167.16;;;10.77;71.03
54329;BME280;40710;51.120;13.136;2023-04-15T05:02:44;98163.28;;;10.70;70.80
54329;BME280;40710;51.120;13.136;2023-04-15T05:05:09;98154.19;;;11.22;69.72
54329;BME280;40710;51.120;13.136;2023-04-15T05:07:35;98163.91;;;10.73;70.39
54329;BME280;40710;51.120;13.136;2023-04-15T05:09:59;98159.34;;;11.00;70.47
54329;BME280;40710;51.120;13.136;2023-04-15T05:12:24;98162.63;;;11.14;69.56
54329;BME280;40710;51.120;13.136;2023-04-15T05:14:48;98156.13;;;11.43;68.30
54329;BME280;40710;51.120;13.136;2023-04-15T05:17:13;98170.22;;;10.34;71.30
54329;BME280;40710;51.120;13.136;2023-04-15T05:19:38;98165.69;;;10.36;72.59
54329;BME280;40710;51.120;13.136;2023-04-15T05:22:03;98171.03;;;10.47;71.71
54329;BME280;40710;51.120;13.136;2023-04-15T05:24:28;98169.88;;;10.75;71.05
54329;BME280;40710;51.120;13.136;2023-04-15T05:26:52;98171.22;;;10.81;70.81
54329;BME280;40710;51.120;13.136;2023-04-15T05:29:17;98172.31;;;10.90;70.10
54329;BME280;40710;51.120;13.136;2023-04-15T05:31:41;98175.75;;;10.79;70.33
54329;BME280;40710;51.120;13.136;2023-04-15T05:34:06;98176.44;;;10.57;70.28
54329;BME280;40710;51.120;13.136;2023-04-15T05:36:31;98194.63;;;10.60;70.92
54329;BME280;40710;51.120;13.136;2023-04-15T05:38:55;98185.31;;;10.56;70.07
54329;BME280;40710;51.120;13.136;2023-04-15T05:41:20;98196.84;;;10.53;70.92
54329;BME280;40710;51.120;13.136;2023-04-15T05:43:44;98184.31;;;10.70;70.19
54329;BME280;40710;51.120;13.136;2023-04-15T05:46:09;98179.03;;;10.46;70.33
54329;BME280;40710;51.120;13.136;2023-04-15T05:48:34;98183.91;;;10.63;70.95
54329;BME280;40710;51.120;13.136;2023-04-15T05:50:59;98182.16;;;10.99;69.55
54329;BME280;40710;51.120;13.136;2023-04-15T05:53:24;98173.84;;;11.05;69.63
54329;BME280;40710;51.120;13.136;2023-04-15T05:55:49;98177.16;;;10.96;69.83
54329;BME280;40710;51.120;13.136;2023-04-15T05:58:14;98171.38;;;10.91;70.19
54329;BME280;40710;51.120;13.136;2023-04-15T06:00:38;98170.00;;;11.45;68.66
54329;BME280;40710;51.120;13.136;2023-04-15T06:03:03;98178.84;;;11.44;68.80
54329;BME280;40710;51.120;13.136;2023-04-15T06:05:28;98169.59;;;11.27;69.00
54329;BME280;40710;51.120;13.136;2023-04-15T06:07:52;98162.50;;;11.63;68.01
54329;BME280;40710;51.120;13.136;2023-04-15T06:10:17;98162.25;;;11.54;67.63
54329;BME280;40710;51.120;13.136;2023-04-15T06:12:41;98175.34;;;11.32;68.82
54329;BME280;40710;51.120;13.136;2023-04-15T06:15:06;98189.22;;;10.98;69.79
54329;BME280;40710;51.120;13.136;2023-04-15T06:17:33;98181.31;;;11.69;67.55
54329;BME280;40710;51.120;13.136;2023-04-15T06:19:57;98183.94;;;11.81;66.89
54329;BME280;40710;51.120;13.136;2023-04-15T06:22:23;98195.38;;;11.22;68.69
54329;BME280;40710;51.120;13.136;2023-04-15T06:24:48;98196.88;;;11.02;69.82
54329;BME280;40710;51.120;13.136;2023-04-15T06:27:13;98202.91;;;11.62;68.13
54329;BME280;40710;51.120;13.136;2023-04-15T06:29:39;98201.66;;;11.32;68.18
54329;BME280;40710;51.120;13.136;2023-04-15T06:32:03;98197.53;;;11.52;67.98
54329;BME280;40710;51.120;13.136;2023-04-15T06:34:28;98217.72;;;11.51;68.14
54329;BME280;40710;51.120;13.136;2023-04-15T06:36:52;98207.97;;;11.76;66.68
54329;BME280;40710;51.120;13.136;2023-04-15T06:39:18;98217.66;;;11.29;68.39
54329;BME280;40710;51.120;13.136;2023-04-15T06:41:42;98211.31;;;10.72;70.33
54329;BME280;40710;51.120;13.136;2023-04-15T06:44:07;98228.88;;;10.95;70.48
54329;BME280;40710;51.120;13.136;2023-04-15T06:46:31;98212.78;;;11.35;69.47
54329;BME280;40710;51.120;13.136;2023-04-15T06:48:56;98234.22;;;10.70;71.09
54329;BME280;40710;51.120;13.136;2023-04-15T06:51:21;98221.72;;;11.80;68.21
54329;BME280;40710;51.120;13.136;2023-04-15T06:53:45;98213.38;;;11.86;67.38
54329;BME280;40710;51.120;13.136;2023-04-15T06:56:10;98224.16;;;11.36;68.10
54329;BME280;40710;51.120;13.136;2023-04-15T06:58:34;98226.25;;;10.71;69.71
54329;BME280;40710;51.120;13.136;2023-04-15T07:00:59;98227.84;;;11.09;69.53
54329;BME280;40710;51.120;13.136;2023-04-15T07:03:23;98223.00;;;11.16;69.66
54329;BME280;40710;51.120;13.136;2023-04-15T07:05:48;98218.72;;;11.62;68.53
54329;BME280;40710;51.120;13.136;2023-04-15T07:08:13;98213.34;;;11.63;67.77
54329;BME280;40710;51.120;13.136;2023-04-15T07:10:38;98230.16;;;11.49;69.18
54329;BME280;40710;51.120;13.136;2023-04-15T07:13:03;98235.47;;;11.01;69.72
54329;BME280;40710;51.120;13.136;2023-04-15T07:15:27;98229.41;;;11.36;69.12
54329;BME280;40710;51.120;13.136;2023-04-15T07:17:52;98222.63;;;11.91;67.16
54329;BME280;40710;51.120;13.136;2023-04-15T07:20:17;98238.41;;;11.45;69.08
54329;BME280;40710;51.120;13.136;2023-04-15T07:22:42;98237.31;;;11.12;69.25
54329;BME280;40710;51.120;13.136;2023-04-15T07:25:07;98239.09;;;11.11;69.84
54329;BME280;40710;51.120;13.136;2023-04-15T07:27:32;98230.16;;;10.90;70.09
54329;BME280;40710;51.120;13.136;2023-04-15T07:29:56;98245.03;;;11.02;70.71
54329;BME280;40710;51.120;13.136;2023-04-15T07:32:21;98234.06;;;11.79;68.58
54329;BME280;40710;51.120;13.136;2023-04-15T07:34:46;98246.94;;;11.00;70.25
54329;BME280;40710;51.120;13.136;2023-04-15T07:37:10;98257.31;;;10.02;72.63
54329;BME280;40710;51.120;13.136;2023-04-15T07:39:35;98261.50;;;10.17;73.47
54329;BME280;40710;51.120;13.136;2023-04-15T07:42:00;98253.75;;;10.42;73.34
54329;BME280;40710;51.120;13.136;2023-04-15T07:44:26;98261.66;;;10.66;72.19
54329;BME280;40710;51.120;13.136;2023-04-15T07:46:50;98268.25;;;9.96;73.95
54329;BME280;40710;51.120;13.136;2023-04-15T07:49:15;98279.34;;;10.12;74.79
54329;BME280;40710;51.120;13.136;2023-04-15T07:51:39;98253.88;;;11.01;70.98
54329;BME280;40710;51.120;13.136;2023-04-15T07:54:04;98272.03;;;10.43;73.84
54329;BME280;40710;51.120;13.136;2023-04-15T07:56:28;98267.06;;;10.88;72.45
54329;BME280;40710;51.120;13.136;2023-04-15T07:58:53;98267.66;;;10.68;72.22
54329;BME280;40710;51.120;13.136;2023-04-15T08:01:17;98275.19;;;10.72;71.74
54329;BME280;40710;51.120;13.136;2023-04-15T08:03:42;98290.38;;;10.56;73.98
54329;BME280;40710;51.120;13.136;2023-04-15T08:06:06;98278.19;;;10.68;72.48
54329;BME280;40710;51.120;13.136;2023-04-15T08:08:31;98277.91;;;10.84;71.69
54329;BME280;40710;51.120;13.136;2023-04-15T08:10:57;98290.28;;;10.57;73.39
54329;BME280;40710;51.120;13.136;2023-04-15T08:13:22;98283.44;;;10.92;71.99
54329;BME280;40710;51.120;13.136;2023-04-15T08:15:55;98291.25;;;10.44;73.09
54329;BME280;40710;51.120;13.136;2023-04-15T08:18:36;98267.38;;;11.56;70.66
54329;BME280;40710;51.120;13.136;2023-04-15T08:21:01;98285.34;;;10.90;72.01
54329;BME280;40710;51.120;13.136;2023-04-15T08:23:26;98275.25;;;11.21;70.20
54329;BME280;40710;51.120;13.136;2023-04-15T08:25:50;98303.50;;;10.17;74.95
54329;BME280;40710;51.120;13.136;2023-04-15T08:28:15;98302.44;;;10.71;74.07
54329;BME280;40710;51.120;13.136;2023-04-15T08:30:40;98288.31;;;11.09;71.77
54329;BME280;40710;51.120;13.136;2023-04-15T08:33:05;98295.19;;;10.75;72.74
54329;BME280;40710;51.120;13.136;2023-04-15T08:35:29;98297.81;;;11.36;72.16
54329;BME280;40710;51.120;13.136;2023-04-15T08:37:54;98295.22;;;11.23;71.40
54329;BME280;40710;51.120;13.136;2023-04-15T08:40:25;98326.13;;;9.80;75.77
54329;BME280;40710;51.120;13.136;2023-04-15T08:42:59;98306.72;;;11.09;72.94
54329;BME280;40710;51.120;13.136;2023-04-15T08:45:26;98284.56;;;12.31;69.21
54329;BME280;40710;51.120;13.136;2023-04-15T08:47:54;98289.25;;;11.92;68.83
54329;BME280;40710;51.120;13.136;2023-04-15T08:50:19;98287.41;;;12.17;68.58
54329;BME280;40710;51.120;13.136;2023-04-15T08:52:45;98225.66;;;17.23;54.20
54329;BME280;40710;51.120;13.136;2023-04-15T08:55:11;98268.94;;;13.28;60.95
54329;BME280;40710;51.120;13.136;2023-04-15T08:57:37;98252.91;;;14.46;56.71
54329;BME280;40710;51.120;13.136;2023-04-15T09:00:02;98313.22;;;10.79;68.73
54329;BME280;40710;51.120;13.136;2023-04-15T09:02:27;98332.31;;;10.57;73.01
54329;BME280;40710;51.120;13.136;2023-04-15T09:04:52;98266.63;;;15.60;62.49
54329;BME280;40710;51.120;13.136;2023-04-15T09:07:17;98324.19;;;10.73;70.60
54329;BME280;40710;51.120;13.136;2023-04-15T09:09:41;98313.72;;;11.70;69.95
54329;BME280;40710;51.120;13.136;2023-04-15T09:12:07;98319.31;;;11.65;69.69
54329;BME280;40710;51.120;13.136;2023-04-15T09:14:32;98325.28;;;10.95;71.37
54329;BME280;40710;51.120;13.136;2023-04-15T09:17:03;98326.25;;;11.31;71.14
54329;BME280;40710;51.120;13.136;2023-04-15T09:19:28;98324.06;;;10.88;72.11
54329;BME280;40710;51.120;13.136;2023-04-15T09:21:55;98338.59;;;10.29;73.65
54329;BME280;40710;51.120;13.136;2023-04-15T09:24:20;98281.34;;;15.53;64.42
54329;BME280;40710;51.120;13.136;2023-04-15T09:26:46;98315.31;;;11.84;65.17
54329;BME280;40710;51.120;13.136;2023-04-15T09:29:11;98332.97;;;11.70;68.84
54329;BME280;40710;51.120;13.136;2023-04-15T09:31:37;98329.69;;;12.26;67.74
54329;BME280;40710;51.120;13.136;2023-04-15T09:34:02;98339.25;;;11.57;69.59
54329;BME280;40710;51.120;13.136;2023-04-15T09:36:26;98359.16;;;10.87;73.33
54329;BME280;40710;51.120;13.136;2023-04-15T09:38:57;98348.56;;;11.49;70.94
54329;BME280;40710;51.120;13.136;2023-04-15T09:41:23;98358.44;;;11.22;70.99
54329;BME280;40710;51.120;13.136;2023-04-15T09:43:48;98363.84;;;11.44;71.62
54329;BME280;40710;51.120;13.136;2023-04-15T09:46:12;98351.97;;;11.63;70.47
54329;BME280;40710;51.120;13.136;2023-04-15T09:48:37;98332.75;;;11.98;68.08
54329;BME280;40710;51.120;13.136;2023-04-15T09:51:01;98336.53;;;12.29;67.55
54329;BME280;40710;51.120;13.136;2023-04-15T09:53:26;98335.22;;;12.57;67.20
54329;BME280;40710;51.120;13.136;2023-04-15T09:55:54;98328.00;;;12.93;65.67
54329;BME280;40710;51.120;13.136;2023-04-15T09:58:20;98326.66;;;12.99;65.43
54329;BME280;40710;51.120;13.136;2023-04-15T10:00:49;98351.91;;;11.51;69.69
54329;BME280;40710;51.120;13.136;2023-04-15T10:03:27;98335.44;;;12.43;68.47
54329;BME280;40710;51.120;13.136;2023-04-15T10:05:54;98339.25;;;11.57;69.39
54329;BME280;40710;51.120;13.136;2023-04-15T10:08:21;98360.22;;;10.84;70.84
54329;BME280;40710;51.120;13.136;2023-04-15T10:10:47;98346.75;;;11.98;68.49
54329;BME280;40710;51.120;13.136;2023-04-15T10:13:13;98349.53;;;12.19;68.05
54329;BME280;40710;51.120;13.136;2023-04-15T10:15:43;98359.78;;;12.00;69.53
54329;BME280;40710;51.120;13.136;2023-04-15T10:18:10;98352.91;;;11.62;69.21
54329;BME280;40710;51.120;13.136;2023-04-15T10:20:37;98384.81;;;10.96;72.19
54329;BME280;40710;51.120;13.136;2023-04-15T10:23:02;98374.69;;;11.64;70.14
54329;BME280;40710;51.120;13.136;2023-04-15T10:25:28;98381.31;;;11.45;71.65
54329;BME280;40710;51.120;13.136;2023-04-15T10:27:53;98378.97;;;12.13;69.04
54329;BME280;40710;51.120;13.136;2023-04-15T10:30:17;98383.50;;;12.11;69.50
54329;BME280;40710;51.120;13.136;2023-04-15T10:32:43;98379.81;;;11.89;69.13
54329;BME280;40710;51.120;13.136;2023-04-15T10:35:10;98381.00;;;12.09;68.52
54329;BME280;40710;51.120;13.136;2023-04-15T10:37:36;98382.03;;;12.42;67.42
54329;BME280;40710;51.120;13.136;2023-04-15T10:40:27;98400.50;;;11.83;68.71
54329;BME280;40710;51.120;13.136;2023-04-15T10:42:54;98398.50;;;12.22;68.91
54329;BME280;40710;51.120;13.136;2023-04-15T10:45:19;98384.81;;;12.63;66.74
54329;BME280;40710;51.120;13.136;2023-04-15T10:47:43;98393.44;;;12.54;67.55
54329;BME280;40710;51.120;13.136;2023-04-15T10:50:08;98377.16;;;13.17;65.17
54329;BME280;40710;51.120;13.136;2023-04-15T10:52:32;98388.56;;;12.83;65.85
54329;BME280;40710;51.120;13.136;2023-04-15T10:55:12;98387.47;;;12.75;66.86
54329;BME280;40710;51.120;13.136;2023-04-15T10:57:40;98380.03;;;12.80;65.91
54329;BME280;40710;51.120;13.136;2023-04-15T11:00:16;98380.38;;;13.09;65.81
54329;BME280;40710;51.120;13.136;2023-04-15T11:05:19;98380.00;;;13.14;66.60
54329;BME280;40710;51.120;13.136;2023-04-15T11:07:52;98376.47;;;13.91;64.88
54329;BME280;40710;51.120;13.136;2023-04-15T11:12:43;98416.69;;;11.89;69.43
54329;BME280;40710;51.120;13.136;2023-04-15T11:15:34;98398.59;;;12.56;67.07
54329;BME280;40710;51.120;13.136;2023-04-15T11:20:36;98438.84;;;11.00;71.90
54329;BME280;40710;51.120;13.136;2023-04-15T11:23:00;98444.66;;;11.42;71.73
54329;BME280;40710;51.120;13.136;2023-04-15T11:25:28;98433.44;;;11.64;70.63
54329;BME280;40710;51.120;13.136;2023-04-15T11:27:54;98431.59;;;11.53;70.60
54329;BME280;40710;51.120;13.136;2023-04-15T11:30:21;98420.06;;;11.91;68.53
54329;BME280;40710;51.120;13.136;2023-04-15T11:32:46;98425.47;;;11.53;71.12
54329;BME280;40710;51.120;13.136;2023-04-15T11:35:10;98419.44;;;12.59;67.83
54329;BME280;40710;51.120;13.136;2023-04-15T11:37:35;98409.03;;;13.02;65.83
54329;BME280;40710;51.120;13.136;2023-04-15T11:40:01;98414.44;;;12.78;66.27
54329;BME280;40710;51.120;13.136;2023-04-15T11:42:26;98426.50;;;11.87;68.47
54329;BME280;40710;51.120;13.136;2023-04-15T11:45:12;98435.88;;;13.19;69.05
54329;BME280;40710;51.120;13.136;2023-04-15T11:47:38;98416.69;;;12.83;65.30
54329;BME280;40710;51.120;13.136;2023-04-15T11:50:17;98436.75;;;12.27;68.55
54329;BME280;40710;51.120;13.136;2023-04-15T11:52:59;98439.16;;;11.82;69.49
54329;BME280;40710;51.120;13.136;2023-04-15T11:55:25;98442.44;;;12.21;69.74
54329;BME280;40710;51.120;13.136;2023-04-15T11:58:07;98432.03;;;12.66;67.10
54329;BME280;40710;51.120;13.136;2023-04-15T12:00:32;98438.19;;;12.32;67.22
54329;BME280;40710;51.120;13.136;2023-04-15T12:11:14;98452.13;;;12.45;65.54
54329;BME280;40710;51.120;13.136;2023-04-15T12:13:43;98459.28;;;12.43;66.23
54329;BME280;40710;51.120;13.136;2023-04-15T12:16:07;98466.53;;;11.93;68.45
54329;BME280;40710;51.120;13.136;2023-04-15T12:18:32;98450.28;;;13.15;64.79
54329;BME280;40710;51.120;13.136;2023-04-15T12:21:08;98445.25;;;13.46;61.44
54329;BME280;40710;51.120;13.136;2023-04-15T12:23:51;98457.47;;;13.24;63.02
54329;BME280;40710;51.120;13.136;2023-04-15T12:26:17;98456.88;;;13.54;62.28
54329;BME280;40710;51.120;13.136;2023-04-15T12:28:53;98448.22;;;14.49;59.83
54329;BME280;40710;51.120;13.136;2023-04-15T12:31:17;98440.00;;;14.64;59.20
54329;BME280;40710;51.120;13.136;2023-04-15T12:33:47;98463.63;;;13.91;60.30
54329;BME280;40710;51.120;13.136;2023-04-15T12:36:12;98458.94;;;14.90;59.20
54329;BME280;40710;51.120;13.136;2023-04-15T12:38:37;98477.88;;;13.22;62.52
54329;BME280;40710;51.120;13.136;2023-04-15T12:41:01;98476.41;;;13.63;60.60
54329;BME280;40710;51.120;13.136;2023-04-15T12:43:26;98467.25;;;13.78;61.22
54329;BME280;40710;51.120;13.136;2023-04-15T12:45:50;98466.63;;;14.51;59.77
54329;BME280;40710;51.120;13.136;2023-04-15T12:48:15;98465.56;;;13.77;60.20
54329;BME280;40710;51.120;13.136;2023-04-15T12:50:40;98471.72;;;14.10;59.77
54329;BME280;40710;51.120;13.136;2023-04-15T12:53:04;98475.84;;;13.92;60.10
54329;BME280;40710;51.120;13.136;2023-04-15T12:55:29;98481.88;;;14.26;59.70
54329;BME280;40710;51.120;13.136;2023-04-15T12:57:53;98476.72;;;14.25;59.66
54329;BME280;40710;51.120;13.136;2023-04-15T13:00:18;98494.91;;;13.63;61.58